sensor_id;sensor_type;location;lat;lon;timestamp;P1;durP1;ratioP1;P2;durP2;ratioP2
5022;SDS011;2530;47.990;7.866;2023-04-06T00:01:06;4.93;;;4.53;;
5022;SDS011;2530;47.990;7.866;2023-04-06T00:03:32;5.50;;;4.90;;
5022;SDS011;2530;47.990;7.866;2023-04-06T00:05:57;5.30;;;4.80;;
5022;SDS011;2530;47.990;7.866;2023-04-06T00:08:23;5.57;;;5.10;;
5022;SDS011;2530;47.990;7.866;2023-04-06T00:10:48;5.13;;;4.63;;
5022;SDS011;2530;47.990;7.866;2023-04-06T00:13:14;5.40;;;4.50;;
5022;SDS011;2530;47.990;7.866;2023-04-06T00:15:40;5.45;;;4.85;;
5022;SDS011;2530;47.990;7.866;2023-04-06T00:18:05;5.13;;;4.63;;
5022;SDS011;2530;47.990;7.866;2023-04-06T00:20:40;6.55;;;5.00;;
5022;SDS011;2530;47.990;7.866;2023-04-06T00:23:09;5.45;;;4.90;;
5022;SDS011;2530;47.990;7.866;2023-04-06T00:25:41;5.80;;;5.15;;
5022;SDS011;2530;47.990;7.866;2023-04-06T00:28:12;6.68;;;5.10;;
5022;SDS011;2530;47.990;7.866;2023-04-06T00:30:37;5.33;;;4.63;;
5022;SDS011;2530;47.990;7.866;2023-04-06T00:33:03;6.43;;;5.00;;
5022;SDS011;2530;47.990;7.866;2023-04-06T00:35:28;5.47;;;4.97;;
5022;SDS011;2530;47.990;7.866;2023-04-06T00:37:54;5.20;;;4.80;;
5022;SDS011;2530;47.990;7.866;2023-04-06T00:40:19;5.60;;;5.00;;
5022;SDS011;2530;47.990;7.866;2023-04-06T00:42:45;5.50;;;5.00;;
5022;SDS011;2530;47.990;7.866;2023-04-06T00:45:11;4.97;;;4.47;;
5022;SDS011;2530;47.990;7.866;2023-04-06T00:47:36;4.93;;;4.43;;
5022;SDS011;2530;47.990;7.866;2023-04-06T00:50:02;5.37;;;4.60;;
5022;SDS011;2530;47.990;7.866;2023-04-06T00:52:28;5.00;;;4.50;;
5022;SDS011;2530;47.990;7.866;2023-04-06T00:54:53;5.30;;;4.80;;
5022;SDS011;2530;47.990;7.866;2023-04-06T00:57:19;5.32;;;4.82;;
5022;SDS011;2530;47.990;7.866;2023-04-06T00:59:45;5.75;;;4.82;;
5022;SDS011;2530;47.990;7.866;2023-04-06T01:02:12;5.60;;;4.40;;
5022;SDS011;2530;47.990;7.866;2023-04-06T01:04:37;6.07;;;4.97;;
5022;SDS011;2530;47.990;7.866;2023-04-06T01:07:03;5.60;;;4.85;;
5022;SDS011;2530;47.990;7.866;2023-04-06T01:09:29;4.95;;;4.40;;
5022;SDS011;2530;47.990;7.866;2023-04-06T01:11:58;5.20;;;4.40;;
5022;SDS011;2530;47.990;7.866;2023-04-06T01:14:24;4.70;;;4.30;;
5022;SDS011;2530;47.990;7.866;2023-04-06T01:16:50;5.13;;;4.63;;
5022;SDS011;2530;47.990;7.866;2023-04-06T01:19:16;5.75;;;4.90;;
5022;SDS011;2530;47.990;7.866;2023-04-06T01:21:42;5.20;;;4.70;;
5022;SDS011;2530;47.990;7.866;2023-04-06T01:24:08;5.20;;;4.60;;
5022;SDS011;2530;47.990;7.866;2023-04-06T01:26:34;5.15;;;4.70;;
5022;SDS011;2530;47.990;7.866;2023-04-06T01:29:01;5.50;;;4.90;;
5022;SDS011;2530;47.990;7.866;2023-04-06T01:31:27;5.20;;;4.80;;
5022;SDS011;2530;47.990;7.866;2023-04-06T01:33:53;5.30;;;4.80;;
5022;SDS011;2530;47.990;7.866;2023-04-06T01:36:19;5.53;;;5.00;;
5022;SDS011;2530;47.990;7.866;2023-04-06T01:38:45;6.40;;;5.10;;
5022;SDS011;2530;47.990;7.866;2023-04-06T01:41:11;6.80;;;4.63;;
5022;SDS011;2530;47.990;7.866;2023-04-06T01:43:36;4.50;;;4.10;;
5022;SDS011;2530;47.990;7.866;2023-04-06T01:46:02;6.20;;;4.70;;
5022;SDS011;2530;47.990;7.866;2023-04-06T01:48:28;5.15;;;4.25;;
5022;SDS011;2530;47.990;7.866;2023-04-06T01:50:53;5.30;;;4.80;;
5022;SDS011;2530;47.990;7.866;2023-04-06T01:53:20;4.60;;;4.20;;
5022;SDS011;2530;47.990;7.866;2023-04-06T01:55:45;5.32;;;4.80;;
5022;SDS011;2530;47.990;7.866;2023-04-06T01:58:11;5.78;;;4.50;;
5022;SDS011;2530;47.990;7.866;2023-04-06T02:00:37;4.53;;;4.13;;
5022;SDS011;2530;47.990;7.866;2023-04-06T02:03:03;5.15;;;4.65;;
5022;SDS011;2530;47.990;7.866;2023-04-06T02:05:29;4.78;;;4.22;;
5022;SDS011;2530;47.990;7.866;2023-04-06T02:07:56;5.32;;;4.60;;
5022;SDS011;2530;47.990;7.866;2023-04-06T02:10:22;4.75;;;4.35;;
5022;SDS011;2530;47.990;7.866;2023-04-06T02:12:48;4.93;;;4.43;;
5022;SDS011;2530;47.990;7.866;2023-04-06T02:15:14;5.18;;;4.68;;
5022;SDS011;2530;47.990;7.866;2023-04-06T02:17:40;6.17;;;5.00;;
5022;SDS011;2530;47.990;7.866;2023-04-06T02:20:06;5.00;;;4.50;;
5022;SDS011;2530;47.990;7.866;2023-04-06T02:22:32;6.38;;;4.75;;
5022;SDS011;2530;47.990;7.866;2023-04-06T02:24:58;5.37;;;4.50;;
5022;SDS011;2530;47.990;7.866;2023-04-06T02:27:24;6.07;;;4.80;;
5022;SDS011;2530;47.990;7.866;2023-04-06T02:29:49;5.20;;;4.70;;
5022;SDS011;2530;47.990;7.866;2023-04-06T02:32:15;5.00;;;4.60;;
5022;SDS011;2530;47.990;7.866;2023-04-06T02:34:40;5.37;;;4.30;;
5022;SDS011;2530;47.990;7.866;2023-04-06T02:37:06;5.20;;;4.70;;
5022;SDS011;2530;47.990;7.866;2023-04-06T02:39:31;5.50;;;4.30;;
5022;SDS011;2530;47.990;7.866;2023-04-06T02:41:57;4.93;;;4.43;;
5022;SDS011;2530;47.990;7.866;2023-04-06T02:44:22;5.40;;;4.40;;
5022;SDS011;2530;47.990;7.866;2023-04-06T02:46:48;5.40;;;4.70;;
5022;SDS011;2530;47.990;7.866;2023-04-06T02:49:13;5.23;;;4.73;;
5022;SDS011;2530;47.990;7.866;2023-04-06T02:51:39;4.97;;;4.57;;
5022;SDS011;2530;47.990;7.866;2023-04-06T02:54:05;5.10;;;4.60;;
5022;SDS011;2530;47.990;7.866;2023-04-06T02:56:30;5.10;;;4.60;;
5022;SDS011;2530;47.990;7.866;2023-04-06T02:58:56;4.43;;;4.10;;
5022;SDS011;2530;47.990;7.866;2023-04-06T03:01:21;5.00;;;4.50;;
5022;SDS011;2530;47.990;7.866;2023-04-06T03:03:47;5.05;;;4.65;;
5022;SDS011;2530;47.990;7.866;2023-04-06T03:06:12;6.10;;;4.70;;
5022;SDS011;2530;47.990;7.866;2023-04-06T03:08:38;4.90;;;4.40;;
5022;SDS011;2530;47.990;7.866;2023-04-06T03:11:03;4.80;;;4.30;;
5022;SDS011;2530;47.990;7.866;2023-04-06T03:13:29;5.30;;;4.80;;
5022;SDS011;2530;47.990;7.866;2023-04-06T03:15:54;4.43;;;4.03;;
5022;SDS011;2530;47.990;7.866;2023-04-06T03:18:21;4.60;;;4.20;;
5022;SDS011;2530;47.990;7.866;2023-04-06T03:20:48;4.60;;;4.20;;
5022;SDS011;2530;47.990;7.866;2023-04-06T03:23:13;4.90;;;4.30;;
5022;SDS011;2530;47.990;7.866;2023-04-06T03:25:39;4.50;;;4.10;;
5022;SDS011;2530;47.990;7.866;2023-04-06T03:28:04;4.10;;;3.80;;
5022;SDS011;2530;47.990;7.866;2023-04-06T03:30:30;4.90;;;4.40;;
5022;SDS011;2530;47.990;7.866;2023-04-06T03:32:55;4.97;;;4.57;;
5022;SDS011;2530;47.990;7.866;2023-04-06T03:35:21;5.47;;;5.00;;
5022;SDS011;2530;47.990;7.866;2023-04-06T03:37:46;5.00;;;4.60;;
5022;SDS011;2530;47.990;7.866;2023-04-06T03:40:12;4.57;;;4.17;;
5022;SDS011;2530;47.990;7.866;2023-04-06T03:42:37;7.00;;;4.50;;
5022;SDS011;2530;47.990;7.866;2023-04-06T03:45:03;5.10;;;4.60;;
5022;SDS011;2530;47.990;7.866;2023-04-06T03:47:29;4.70;;;4.30;;
5022;SDS011;2530;47.990;7.866;2023-04-06T03:49:54;5.17;;;4.67;;
5022;SDS011;2530;47.990;7.866;2023-04-06T03:52:20;5.00;;;4.50;;
5022;SDS011;2530;47.990;7.866;2023-04-06T03:54:47;5.00;;;4.60;;
5022;SDS011;2530;47.990;7.866;2023-04-06T03:57:13;4.82;;;4.20;;
5022;SDS011;2530;47.990;7.866;2023-04-06T03:59:39;5.45;;;4.82;;
5022;SDS011;2530;47.990;7.866;2023-04-06T04:02:05;4.80;;;4.40;;
5022;SDS011;2530;47.990;7.866;2023-04-06T04:04:30;5.10;;;4.07;;
5022;SDS011;2530;47.990;7.866;2023-04-06T04:06:56;4.70;;;4.30;;
5022;SDS011;2530;47.990;7.866;2023-04-06T04:09:21;5.10;;;4.60;;
5022;SDS011;2530;47.990;7.866;2023-04-06T04:11:47;5.33;;;4.20;;
5022;SDS011;2530;47.990;7.866;2023-04-06T04:14:12;5.30;;;4.80;;
5022;SDS011;2530;47.990;7.866;2023-04-06T04:16:38;4.90;;;4.40;;
5022;SDS011;2530;47.990;7.866;2023-04-06T04:19:04;5.60;;;4.30;;
5022;SDS011;2530;47.990;7.866;2023-04-06T04:21:31;4.72;;;4.32;;
5022;SDS011;2530;47.990;7.866;2023-04-06T04:23:56;4.80;;;4.40;;
5022;SDS011;2530;47.990;7.866;2023-04-06T04:26:22;4.90;;;4.07;;
5022;SDS011;2530;47.990;7.866;2023-04-06T04:28:48;6.03;;;4.10;;
5022;SDS011;2530;47.990;7.866;2023-04-06T04:31:13;5.10;;;4.60;;
5022;SDS011;2530;47.990;7.866;2023-04-06T04:33:39;5.13;;;4.60;;
5022;SDS011;2530;47.990;7.866;2023-04-06T04:36:05;4.50;;;4.10;;
5022;SDS011;2530;47.990;7.866;2023-04-06T04:38:30;5.18;;;4.68;;
5022;SDS011;2530;47.990;7.866;2023-04-06T04:40:56;5.00;;;4.40;;
5022;SDS011;2530;47.990;7.866;2023-04-06T04:43:21;4.80;;;4.40;;
5022;SDS011;2530;47.990;7.866;2023-04-06T04:45:47;5.57;;;4.90;;
5022;SDS011;2530;47.990;7.866;2023-04-06T04:48:12;4.80;;;4.40;;
5022;SDS011;2530;47.990;7.866;2023-04-06T04:50:38;4.43;;;4.03;;
5022;SDS011;2530;47.990;7.866;2023-04-06T04:53:03;5.00;;;4.60;;
5022;SDS011;2530;47.990;7.866;2023-04-06T04:55:31;4.90;;;4.50;;
5022;SDS011;2530;47.990;7.866;2023-04-06T04:57:56;5.10;;;4.60;;
5022;SDS011;2530;47.990;7.866;2023-04-06T05:00:22;5.60;;;4.72;;
5022;SDS011;2530;47.990;7.866;2023-04-06T05:02:48;5.30;;;4.80;;
5022;SDS011;2530;47.990;7.866;2023-04-06T05:05:13;5.40;;;4.90;;
5022;SDS011;2530;47.990;7.866;2023-04-06T05:07:39;5.40;;;4.90;;
5022;SDS011;2530;47.990;7.866;2023-04-06T05:10:05;4.83;;;4.33;;
5022;SDS011;2530;47.990;7.866;2023-04-06T05:12:30;5.28;;;4.50;;
5022;SDS011;2530;47.990;7.866;2023-04-06T05:14:56;5.35;;;4.75;;
5022;SDS011;2530;47.990;7.866;2023-04-06T05:17:22;4.85;;;4.45;;
5022;SDS011;2530;47.990;7.866;2023-04-06T05:19:47;5.40;;;4.90;;
5022;SDS011;2530;47.990;7.866;2023-04-06T05:22:13;5.30;;;4.80;;
5022;SDS011;2530;47.990;7.866;2023-04-06T05:24:42;5.90;;;5.40;;
5022;SDS011;2530;47.990;7.866;2023-04-06T05:27:08;5.50;;;4.93;;
5022;SDS011;2530;47.990;7.866;2023-04-06T05:29:34;5.32;;;4.82;;
5022;SDS011;2530;47.990;7.866;2023-04-06T05:32:00;4.72;;;4.32;;
5022;SDS011;2530;47.990;7.866;2023-04-06T05:34:26;5.53;;;5.00;;
5022;SDS011;2530;47.990;7.866;2023-04-06T05:36:52;5.40;;;4.90;;
5022;SDS011;2530;47.990;7.866;2023-04-06T05:39:17;4.80;;;4.10;;
5022;SDS011;2530;47.990;7.866;2023-04-06T05:41:43;5.60;;;4.40;;
5022;SDS011;2530;47.990;7.866;2023-04-06T05:44:08;4.93;;;4.43;;
5022;SDS011;2530;47.990;7.866;2023-04-06T05:46:34;5.13;;;4.60;;
5022;SDS011;2530;47.990;7.866;2023-04-06T05:48:59;5.50;;;4.30;;
5022;SDS011;2530;47.990;7.866;2023-04-06T05:51:25;5.70;;;4.40;;
5022;SDS011;2530;47.990;7.866;2023-04-06T05:53:51;4.93;;;4.50;;
5022;SDS011;2530;47.990;7.866;2023-04-06T05:56:17;5.30;;;4.80;;
5022;SDS011;2530;47.990;7.866;2023-04-06T05:58:42;5.30;;;4.80;;
5022;SDS011;2530;47.990;7.866;2023-04-06T06:01:08;5.23;;;4.40;;
5022;SDS011;2530;47.990;7.866;2023-04-06T06:03:34;5.40;;;4.90;;
5022;SDS011;2530;47.990;7.866;2023-04-06T06:06:00;5.23;;;4.73;;
5022;SDS011;2530;47.990;7.866;2023-04-06T06:08:26;5.80;;;5.20;;
5022;SDS011;2530;47.990;7.866;2023-04-06T06:10:52;5.28;;;4.78;;
5022;SDS011;2530;47.990;7.866;2023-04-06T06:13:18;5.40;;;4.90;;
5022;SDS011;2530;47.990;7.866;2023-04-06T06:15:43;5.50;;;4.88;;
5022;SDS011;2530;47.990;7.866;2023-04-06T06:18:09;6.22;;;5.25;;
5022;SDS011;2530;47.990;7.866;2023-04-06T06:20:35;5.88;;;4.90;;
5022;SDS011;2530;47.990;7.866;2023-04-06T06:23:00;5.77;;;5.20;;
5022;SDS011;2530;47.990;7.866;2023-04-06T06:25:26;5.30;;;4.80;;
5022;SDS011;2530;47.990;7.866;2023-04-06T06:27:51;6.00;;;4.60;;
5022;SDS011;2530;47.990;7.866;2023-04-06T06:30:17;6.30;;;4.90;;
5022;SDS011;2530;47.990;7.866;2023-04-06T06:32:43;7.20;;;5.00;;
5022;SDS011;2530;47.990;7.866;2023-04-06T06:35:08;4.67;;;4.27;;
5022;SDS011;2530;47.990;7.866;2023-04-06T06:37:34;5.20;;;4.40;;
5022;SDS011;2530;47.990;7.866;2023-04-06T06:39:59;4.90;;;4.30;;
5022;SDS011;2530;47.990;7.866;2023-04-06T06:42:25;5.50;;;5.00;;
5022;SDS011;2530;47.990;7.866;2023-04-06T06:44:51;5.30;;;4.80;;
5022;SDS011;2530;47.990;7.866;2023-04-06T06:47:17;5.70;;;5.10;;
5022;SDS011;2530;47.990;7.866;2023-04-06T06:49:42;5.22;;;4.30;;
5022;SDS011;2530;47.990;7.866;2023-04-06T06:52:08;5.18;;;4.57;;
5022;SDS011;2530;47.990;7.866;2023-04-06T06:54:33;5.10;;;4.68;;
5022;SDS011;2530;47.990;7.866;2023-04-06T06:56:59;5.20;;;4.40;;
5022;SDS011;2530;47.990;7.866;2023-04-06T06:59:25;5.50;;;5.00;;
5022;SDS011;2530;47.990;7.866;2023-04-06T07:01:51;4.60;;;4.20;;
5022;SDS011;2530;47.990;7.866;2023-04-06T07:04:16;5.33;;;4.83;;
5022;SDS011;2530;47.990;7.866;2023-04-06T07:06:42;4.93;;;4.43;;
5022;SDS011;2530;47.990;7.866;2023-04-06T07:09:07;4.90;;;4.50;;
5022;SDS011;2530;47.990;7.866;2023-04-06T07:11:33;5.30;;;4.80;;
5022;SDS011;2530;47.990;7.866;2023-04-06T07:13:58;5.50;;;4.43;;
5022;SDS011;2530;47.990;7.866;2023-04-06T07:16:24;5.20;;;4.70;;
5022;SDS011;2530;47.990;7.866;2023-04-06T07:18:49;5.13;;;4.70;;
5022;SDS011;2530;47.990;7.866;2023-04-06T07:21:15;6.10;;;4.80;;
5022;SDS011;2530;47.990;7.866;2023-04-06T07:23:41;5.72;;;5.13;;
5022;SDS011;2530;47.990;7.866;2023-04-06T07:26:06;5.53;;;4.70;;
5022;SDS011;2530;47.990;7.866;2023-04-06T07:28:32;6.33;;;4.60;;
5022;SDS011;2530;47.990;7.866;2023-04-06T07:30:57;4.90;;;4.50;;
5022;SDS011;2530;47.990;7.866;2023-04-06T07:33:23;5.10;;;4.60;;
5022;SDS011;2530;47.990;7.866;2023-04-06T07:35:49;5.85;;;4.60;;
5022;SDS011;2530;47.990;7.866;2023-04-06T07:38:16;5.70;;;4.70;;
5022;SDS011;2530;47.990;7.866;2023-04-06T07:40:41;4.93;;;4.45;;
5022;SDS011;2530;47.990;7.866;2023-04-06T07:43:07;4.85;;;4.45;;
5022;SDS011;2530;47.990;7.866;2023-04-06T07:45:32;5.47;;;4.80;;
5022;SDS011;2530;47.990;7.866;2023-04-06T07:47:58;4.53;;;3.88;;
5022;SDS011;2530;47.990;7.866;2023-04-06T07:50:23;5.20;;;4.70;;
5022;SDS011;2530;47.990;7.866;2023-04-06T07:52:49;5.60;;;4.50;;
5022;SDS011;2530;47.990;7.866;2023-04-06T07:55:15;5.23;;;4.53;;
5022;SDS011;2530;47.990;7.866;2023-04-06T07:57:40;5.33;;;4.40;;
5022;SDS011;2530;47.990;7.866;2023-04-06T08:00:06;4.30;;;3.90;;
5022;SDS011;2530;47.990;7.866;2023-04-06T08:02:34;4.45;;;4.05;;
5022;SDS011;2530;47.990;7.866;2023-04-06T08:04:59;4.13;;;3.70;;
5022;SDS011;2530;47.990;7.866;2023-04-06T08:07:25;4.85;;;4.35;;
5022;SDS011;2530;47.990;7.866;2023-04-06T08:09:51;4.97;;;4.53;;
5022;SDS011;2530;47.990;7.866;2023-04-06T08:12:17;5.00;;;4.53;;
5022;SDS011;2530;47.990;7.866;2023-04-06T08:14:42;4.60;;;4.20;;
5022;SDS011;2530;47.990;7.866;2023-04-06T08:17:08;6.10;;;5.30;;
5022;SDS011;2530;47.990;7.866;2023-04-06T08:19:34;5.78;;;4.90;;
5022;SDS011;2530;47.990;7.866;2023-04-06T08:21:59;5.18;;;4.68;;
5022;SDS011;2530;47.990;7.866;2023-04-06T08:24:25;5.70;;;5.20;;
5022;SDS011;2530;47.990;7.866;2023-04-06T08:26:50;5.40;;;4.90;;
5022;SDS011;2530;47.990;7.866;2023-04-06T08:29:16;5.90;;;5.32;;
5022;SDS011;2530;47.990;7.866;2023-04-06T08:31:42;8.98;;;5.85;;
5022;SDS011;2530;47.990;7.866;2023-04-06T08:34:08;5.70;;;5.20;;
5022;SDS011;2530;47.990;7.866;2023-04-06T08:36:33;5.05;;;4.65;;
5022;SDS011;2530;47.990;7.866;2023-04-06T08:38:59;5.93;;;5.40;;
5022;SDS011;2530;47.990;7.866;2023-04-06T08:41:25;5.88;;;5.28;;
5022;SDS011;2530;47.990;7.866;2023-04-06T08:43:53;6.10;;;5.35;;
5022;SDS011;2530;47.990;7.866;2023-04-06T08:46:23;5.30;;;4.80;;
5022;SDS011;2530;47.990;7.866;2023-04-06T08:48:56;6.88;;;5.63;;
5022;SDS011;2530;47.990;7.866;2023-04-06T08:51:23;6.93;;;5.53;;
5022;SDS011;2530;47.990;7.866;2023-04-06T08:53:52;6.75;;;6.15;;
5022;SDS011;2530;47.990;7.866;2023-04-06T08:56:22;6.82;;;5.70;;
5022;SDS011;2530;47.990;7.866;2023-04-06T08:58:52;6.43;;;5.75;;
5022;SDS011;2530;47.990;7.866;2023-04-06T09:01:25;6.40;;;5.80;;
5022;SDS011;2530;47.990;7.866;2023-04-06T09:03:55;7.00;;;6.13;;
5022;SDS011;2530;47.990;7.866;2023-04-06T09:06:30;6.25;;;5.65;;
5022;SDS011;2530;47.990;7.866;2023-04-06T09:08:56;6.20;;;5.50;;
5022;SDS011;2530;47.990;7.866;2023-04-06T09:11:23;6.07;;;5.38;;
5022;SDS011;2530;47.990;7.866;2023-04-06T09:16:15;8.05;;;6.22;;
5022;SDS011;2530;47.990;7.866;2023-04-06T09:18:41;8.20;;;5.95;;
5022;SDS011;2530;47.990;7.866;2023-04-06T09:21:07;6.70;;;5.80;;
5022;SDS011;2530;47.990;7.866;2023-04-06T09:23:33;6.93;;;6.03;;
5022;SDS011;2530;47.990;7.866;2023-04-06T09:26:09;8.20;;;6.75;;
5022;SDS011;2530;47.990;7.866;2023-04-06T09:28:53;7.72;;;6.00;;
5022;SDS011;2530;47.990;7.866;2023-04-06T09:31:26;6.70;;;6.00;;
5022;SDS011;2530;47.990;7.866;2023-04-06T09:33:54;7.70;;;6.40;;
5022;SDS011;2530;47.990;7.866;2023-04-06T09:36:29;7.15;;;6.07;;
5022;SDS011;2530;47.990;7.866;2023-04-06T09:38:59;7.05;;;6.03;;
5022;SDS011;2530;47.990;7.866;2023-04-06T09:41:35;6.50;;;5.80;;
5022;SDS011;2530;47.990;7.866;2023-04-06T09:44:04;6.50;;;5.60;;
5022;SDS011;2530;47.990;7.866;2023-04-06T09:46:41;6.88;;;5.50;;
5022;SDS011;2530;47.990;7.866;2023-04-06T09:49:08;8.40;;;5.90;;
5022;SDS011;2530;47.990;7.866;2023-04-06T09:51:36;7.90;;;6.43;;
5022;SDS011;2530;47.990;7.866;2023-04-06T09:54:02;6.00;;;5.10;;
5022;SDS011;2530;47.990;7.866;2023-04-06T09:56:51;6.40;;;5.70;;
5022;SDS011;2530;47.990;7.866;2023-04-06T10:05:38;6.55;;;5.50;;
5022;SDS011;2530;47.990;7.866;2023-04-06T10:08:11;6.85;;;5.30;;
5022;SDS011;2530;47.990;7.866;2023-04-06T10:10:38;6.07;;;5.35;;
5022;SDS011;2530;47.990;7.866;2023-04-06T10:13:03;5.90;;;5.30;;
5022;SDS011;2530;47.990;7.866;2023-04-06T10:15:30;6.20;;;5.60;;
5022;SDS011;2530;47.990;7.866;2023-04-06T10:17:57;6.40;;;5.30;;
5022;SDS011;2530;47.990;7.866;2023-04-06T10:20:25;6.37;;;5.33;;
5022;SDS011;2530;47.990;7.866;2023-04-06T10:23:00;6.40;;;5.57;;
5022;SDS011;2530;47.990;7.866;2023-04-06T10:25:34;5.63;;;4.82;;
5022;SDS011;2530;47.990;7.866;2023-04-06T10:28:00;6.13;;;5.53;;
5022;SDS011;2530;47.990;7.866;2023-04-06T10:30:26;5.28;;;4.78;;
5022;SDS011;2530;47.990;7.866;2023-04-06T10:32:52;7.68;;;5.20;;
5022;SDS011;2530;47.990;7.866;2023-04-06T10:35:18;5.60;;;4.60;;
5022;SDS011;2530;47.990;7.866;2023-04-06T10:37:48;5.00;;;4.50;;
5022;SDS011;2530;47.990;7.866;2023-04-06T10:40:22;6.15;;;5.43;;
5022;SDS011;2530;47.990;7.866;2023-04-06T10:42:50;5.87;;;5.10;;
5022;SDS011;2530;47.990;7.866;2023-04-06T10:45:20;6.60;;;5.20;;
5022;SDS011;2530;47.990;7.866;2023-04-06T10:47:47;7.07;;;5.13;;
5022;SDS011;2530;47.990;7.866;2023-04-06T10:50:15;5.23;;;4.73;;
5022;SDS011;2530;47.990;7.866;2023-04-06T10:52:43;7.82;;;4.88;;
5022;SDS011;2530;47.990;7.866;2023-04-06T10:55:10;5.80;;;4.70;;
5022;SDS011;2530;47.990;7.866;2023-04-06T10:57:37;6.20;;;5.00;;
5022;SDS011;2530;47.990;7.866;2023-04-06T11:00:04;6.00;;;4.70;;
5022;SDS011;2530;47.990;7.866;2023-04-06T11:02:30;5.93;;;4.57;;
5022;SDS011;2530;47.990;7.866;2023-04-06T11:04:57;5.95;;;4.70;;
5022;SDS011;2530;47.990;7.866;2023-04-06T11:07:24;5.32;;;4.70;;
5022;SDS011;2530;47.990;7.866;2023-04-06T11:09:51;6.20;;;4.90;;
5022;SDS011;2530;47.990;7.866;2023-04-06T11:12:24;5.65;;;4.80;;
5022;SDS011;2530;47.990;7.866;2023-04-06T11:14:58;5.80;;;4.60;;
5022;SDS011;2530;47.990;7.866;2023-04-06T11:17:29;5.43;;;4.53;;
5022;SDS011;2530;47.990;7.866;2023-04-06T11:19:55;7.07;;;4.38;;
5022;SDS011;2530;47.990;7.866;2023-04-06T11:22:22;5.40;;;4.30;;
5022;SDS011;2530;47.990;7.866;2023-04-06T11:24:47;6.10;;;4.40;;
5022;SDS011;2530;47.990;7.866;2023-04-06T11:27:13;4.80;;;3.60;;
5022;SDS011;2530;47.990;7.866;2023-04-06T11:29:41;5.05;;;4.03;;
5022;SDS011;2530;47.990;7.866;2023-04-06T11:32:07;4.40;;;3.95;;
5022;SDS011;2530;47.990;7.866;2023-04-06T11:34:34;5.68;;;3.95;;
5022;SDS011;2530;47.990;7.866;2023-04-06T11:37:02;4.30;;;3.80;;
5022;SDS011;2530;47.990;7.866;2023-04-06T11:39:32;4.18;;;3.78;;
5022;SDS011;2530;47.990;7.866;2023-04-06T11:42:49;4.20;;;3.80;;
5022;SDS011;2530;47.990;7.866;2023-04-06T11:45:16;3.90;;;3.42;;
5022;SDS011;2530;47.990;7.866;2023-04-06T11:47:42;4.20;;;3.80;;
5022;SDS011;2530;47.990;7.866;2023-04-06T11:52:42;5.95;;;4.35;;
5022;SDS011;2530;47.990;7.866;2023-04-06T11:55:22;4.60;;;4.20;;
5022;SDS011;2530;47.990;7.866;2023-04-06T11:57:48;4.72;;;4.00;;
5022;SDS011;2530;47.990;7.866;2023-04-06T12:00:14;4.85;;;4.15;;
5022;SDS011;2530;47.990;7.866;2023-04-06T12:02:44;5.03;;;4.53;;
5022;SDS011;2530;47.990;7.866;2023-04-06T12:05:11;4.63;;;3.60;;
5022;SDS011;2530;47.990;7.866;2023-04-06T12:07:37;4.70;;;4.30;;
5022;SDS011;2530;47.990;7.866;2023-04-06T12:10:03;5.50;;;5.00;;
5022;SDS011;2530;47.990;7.866;2023-04-06T12:12:29;4.15;;;3.65;;
5022;SDS011;2530;47.990;7.866;2023-04-06T12:14:55;4.20;;;3.80;;
5022;SDS011;2530;47.990;7.866;2023-04-06T12:17:21;4.53;;;4.13;;
5022;SDS011;2530;47.990;7.866;2023-04-06T12:19:46;6.30;;;4.60;;
5022;SDS011;2530;47.990;7.866;2023-04-06T12:22:12;6.10;;;4.40;;
5022;SDS011;2530;47.990;7.866;2023-04-06T12:24:38;5.07;;;4.57;;
5022;SDS011;2530;47.990;7.866;2023-04-06T12:27:03;5.13;;;4.63;;
5022;SDS011;2530;47.990;7.866;2023-04-06T12:29:29;4.82;;;4.32;;
5022;SDS011;2530;47.990;7.866;2023-04-06T12:31:55;5.20;;;4.70;;
5022;SDS011;2530;47.990;7.866;2023-04-06T12:34:21;5.03;;;4.50;;
5022;SDS011;2530;47.990;7.866;2023-04-06T12:36:46;5.20;;;4.70;;
5022;SDS011;2530;47.990;7.866;2023-04-06T12:39:12;5.00;;;4.50;;
5022;SDS011;2530;47.990;7.866;2023-04-06T12:41:37;4.50;;;4.00;;
5022;SDS011;2530;47.990;7.866;2023-04-06T12:44:06;4.78;;;4.28;;
5022;SDS011;2530;47.990;7.866;2023-04-06T12:46:31;5.70;;;5.10;;
5022;SDS011;2530;47.990;7.866;2023-04-06T12:48:57;6.32;;;4.88;;
5022;SDS011;2530;47.990;7.866;2023-04-06T12:51:24;5.13;;;4.63;;
5022;SDS011;2530;47.990;7.866;2023-04-06T12:53:53;5.82;;;4.50;;
5022;SDS011;2530;47.990;7.866;2023-04-06T12:56:18;5.25;;;4.50;;
5022;SDS011;2530;47.990;7.866;2023-04-06T12:58:45;4.95;;;4.40;;
5022;SDS011;2530;47.990;7.866;2023-04-06T13:01:11;5.32;;;4.40;;
5022;SDS011;2530;47.990;7.866;2023-04-06T13:03:37;4.90;;;4.40;;
5022;SDS011;2530;47.990;7.866;2023-04-06T13:06:03;5.93;;;4.40;;
5022;SDS011;2530;47.990;7.866;2023-04-06T13:08:29;5.23;;;4.70;;
5022;SDS011;2530;47.990;7.866;2023-04-06T13:10:55;5.20;;;4.70;;
5022;SDS011;2530;47.990;7.866;2023-04-06T13:13:24;5.53;;;4.53;;
5022;SDS011;2530;47.990;7.866;2023-04-06T13:15:54;4.50;;;4.00;;
5022;SDS011;2530;47.990;7.866;2023-04-06T13:18:24;5.07;;;3.85;;
5022;SDS011;2530;47.990;7.866;2023-04-06T13:20:49;4.50;;;4.10;;
5022;SDS011;2530;47.990;7.866;2023-04-06T13:23:15;5.28;;;4.70;;
5022;SDS011;2530;47.990;7.866;2023-04-06T13:25:41;4.80;;;3.92;;
5022;SDS011;2530;47.990;7.866;2023-04-06T13:28:07;5.38;;;4.30;;
5022;SDS011;2530;47.990;7.866;2023-04-06T13:30:33;4.50;;;4.10;;
5022;SDS011;2530;47.990;7.866;2023-04-06T13:32:59;6.50;;;4.90;;
5022;SDS011;2530;47.990;7.866;2023-04-06T13:35:24;5.20;;;4.20;;
5022;SDS011;2530;47.990;7.866;2023-04-06T13:37:50;5.00;;;4.30;;
5022;SDS011;2530;47.990;7.866;2023-04-06T13:40:17;5.57;;;4.43;;
5022;SDS011;2530;47.990;7.866;2023-04-06T13:42:42;4.80;;;4.00;;
5022;SDS011;2530;47.990;7.866;2023-04-06T13:45:10;5.30;;;4.70;;
5022;SDS011;2530;47.990;7.866;2023-04-06T13:47:35;5.07;;;4.53;;
5022;SDS011;2530;47.990;7.866;2023-04-06T13:50:01;5.03;;;4.33;;
5022;SDS011;2530;47.990;7.866;2023-04-06T13:52:28;5.80;;;4.78;;
5022;SDS011;2530;47.990;7.866;2023-04-06T13:54:54;6.20;;;4.50;;
5022;SDS011;2530;47.990;7.866;2023-04-06T13:57:19;6.03;;;4.47;;
5022;SDS011;2530;47.990;7.866;2023-04-06T13:59:47;5.22;;;4.60;;
5022;SDS011;2530;47.990;7.866;2023-04-06T14:02:15;4.93;;;4.10;;
5022;SDS011;2530;47.990;7.866;2023-04-06T14:04:41;4.43;;;4.00;;
5022;SDS011;2530;47.990;7.866;2023-04-06T14:07:06;5.07;;;3.97;;
5022;SDS011;2530;47.990;7.866;2023-04-06T14:09:32;5.38;;;4.88;;
5022;SDS011;2530;47.990;7.866;2023-04-06T14:11:58;4.80;;;4.30;;
5022;SDS011;2530;47.990;7.866;2023-04-06T14:14:24;4.80;;;4.30;;
5022;SDS011;2530;47.990;7.866;2023-04-06T14:16:50;4.88;;;3.92;;
5022;SDS011;2530;47.990;7.866;2023-04-06T14:19:16;5.57;;;4.50;;
5022;SDS011;2530;47.990;7.866;2023-04-06T14:21:42;5.95;;;4.43;;
5022;SDS011;2530;47.990;7.866;2023-04-06T14:24:11;4.47;;;4.00;;
5022;SDS011;2530;47.990;7.866;2023-04-06T14:26:39;6.95;;;4.90;;
5022;SDS011;2530;47.990;7.866;2023-04-06T14:29:06;5.07;;;4.30;;
5022;SDS011;2530;47.990;7.866;2023-04-06T14:31:31;5.47;;;4.53;;
5022;SDS011;2530;47.990;7.866;2023-04-06T14:33:57;4.90;;;4.40;;
5022;SDS011;2530;47.990;7.866;2023-04-06T14:36:23;5.13;;;4.27;;
5022;SDS011;2530;47.990;7.866;2023-04-06T14:38:50;5.07;;;4.10;;
5022;SDS011;2530;47.990;7.866;2023-04-06T14:41:17;5.45;;;4.30;;
5022;SDS011;2530;47.990;7.866;2023-04-06T14:43:46;8.17;;;4.70;;
5022;SDS011;2530;47.990;7.866;2023-04-06T14:46:12;6.18;;;4.80;;
5022;SDS011;2530;47.990;7.866;2023-04-06T14:48:38;5.55;;;4.70;;
5022;SDS011;2530;47.990;7.866;2023-04-06T14:51:03;5.25;;;4.50;;
5022;SDS011;2530;47.990;7.866;2023-04-06T14:53:29;5.80;;;5.03;;
5022;SDS011;2530;47.990;7.866;2023-04-06T14:55:55;4.90;;;4.30;;
5022;SDS011;2530;47.990;7.866;2023-04-06T14:58:21;5.20;;;4.70;;
5022;SDS011;2530;47.990;7.866;2023-04-06T15:00:48;5.00;;;4.40;;
5022;SDS011;2530;47.990;7.866;2023-04-06T15:03:14;5.35;;;4.70;;
5022;SDS011;2530;47.990;7.866;2023-04-06T15:05:40;5.15;;;4.43;;
5022;SDS011;2530;47.990;7.866;2023-04-06T15:08:06;5.60;;;4.10;;
5022;SDS011;2530;47.990;7.866;2023-04-06T15:10:34;4.82;;;4.32;;
5022;SDS011;2530;47.990;7.866;2023-04-06T15:13:00;6.50;;;4.87;;
5022;SDS011;2530;47.990;7.866;2023-04-06T15:15:26;7.35;;;5.10;;
5022;SDS011;2530;47.990;7.866;2023-04-06T15:17:52;5.82;;;4.72;;
5022;SDS011;2530;47.990;7.866;2023-04-06T15:20:18;4.63;;;4.18;;
5022;SDS011;2530;47.990;7.866;2023-04-06T15:22:44;5.10;;;4.30;;